sensor_id;sensor_type;location;lat;lon;timestamp;P1;durP1;ratioP1;P2;durP2;ratioP2
54561;SDS011;40456;53.358;-1.486;2022-07-29T00:00:15;1.40;;;1.30;;
54561;SDS011;40456;53.358;-1.486;2022-07-29T00:02:41;2.33;;;1.70;;
54561;SDS011;40456;53.358;-1.486;2022-07-29T00:05:07;1.88;;;1.50;;
54561;SDS011;40456;53.358;-1.486;2022-07-29T00:07:33;2.70;;;1.83;;
54561;SDS011;40456;53.358;-1.486;2022-07-29T00:09:59;2.60;;;1.75;;
54561;SDS011;40456;53.358;-1.486;2022-07-29T00:12:24;2.13;;;1.20;;
54561;SDS011;40456;53.358;-1.486;2022-07-29T00:14:50;1.65;;;1.27;;
54561;SDS011;40456;53.358;-1.486;2022-07-29T00:17:16;2.10;;;1.40;;
54561;SDS011;40456;53.358;-1.486;2022-07-29T00:19:41;2.13;;;1.30;;
54561;SDS011;40456;53.358;-1.486;2022-07-29T00:22:06;1.98;;;1.27;;
54561;SDS011;40456;53.358;-1.486;2022-07-29T00:24:32;2.20;;;1.30;;
54561;SDS011;40456;53.358;-1.486;2022-07-29T00:26:57;1.33;;;1.23;;
54561;SDS011;40456;53.358;-1.486;2022-07-29T00:29:23;1.88;;;1.10;;
54561;SDS011;40456;53.358;-1.486;2022-07-29T00:31:48;1.23;;;1.00;;
54561;SDS011;40456;53.358;-1.486;2022-07-29T00:34:14;2.55;;;1.80;;
54561;SDS011;40456;53.358;-1.486;2022-07-29T00:36:58;1.08;;;0.90;;
54561;SDS011;40456;53.358;-1.486;2022-07-29T00:39:24;1.38;;;1.15;;
54561;SDS011;40456;53.358;-1.486;2022-07-29T00:41:49;1.63;;;1.25;;
54561;SDS011;40456;53.358;-1.486;2022-07-29T00:44:15;1.08;;;0.90;;
54561;SDS011;40456;53.358;-1.486;2022-07-29T00:46:40;2.15;;;1.08;;
54561;SDS011;40456;53.358;-1.486;2022-07-29T00:49:06;4.07;;;0.98;;
54561;SDS011;40456;53.358;-1.486;2022-07-29T00:51:32;1.23;;;0.80;;
54561;SDS011;40456;53.358;-1.486;2022-07-29T00:54:00;0.70;;;0.70;;
54561;SDS011;40456;53.358;-1.486;2022-07-29T00:56:25;1.00;;;0.80;;
54561;SDS011;40456;53.358;-1.486;2022-07-29T00:58:50;1.00;;;0.85;;
54561;SDS011;40456;53.358;-1.486;2022-07-29T01:01:16;0.85;;;0.63;;
54561;SDS011;40456;53.358;-1.486;2022-07-29T01:03:42;0.65;;;0.60;;
54561;SDS011;40456;53.358;-1.486;2022-07-29T01:06:07;0.77;;;0.63;;
54561;SDS011;40456;53.358;-1.486;2022-07-29T01:08:33;0.70;;;0.70;;
54561;SDS011;40456;53.358;-1.486;2022-07-29T01:10:59;0.85;;;0.50;;
54561;SDS011;40456;53.358;-1.486;2022-07-29T01:13:25;1.40;;;0.65;;
54561;SDS011;40456;53.358;-1.486;2022-07-29T01:15:58;0.55;;;0.55;;
54561;SDS011;40456;53.358;-1.486;2022-07-29T01:34:23;0.70;;;0.30;;
54561;SDS011;40456;53.358;-1.486;2022-07-29T01:36:55;0.60;;;0.32;;
54561;SDS011;40456;53.358;-1.486;2022-07-29T01:39:27;0.20;;;0.20;;
54561;SDS011;40456;53.358;-1.486;2022-07-29T01:41:56;0.35;;;0.30;;
54561;SDS011;40456;53.358;-1.486;2022-07-29T01:44:37;1.25;;;0.43;;
54561;SDS011;40456;53.358;-1.486;2022-07-29T01:47:10;0.40;;;0.30;;
54561;SDS011;40456;53.358;-1.486;2022-07-29T01:49:39;0.52;;;0.40;;
54561;SDS011;40456;53.358;-1.486;2022-07-29T01:52:11;0.75;;;0.43;;
54561;SDS011;40456;53.358;-1.486;2022-07-29T01:54:46;0.50;;;0.40;;
54561;SDS011;40456;53.358;-1.486;2022-07-29T01:57:16;0.73;;;0.30;;
54561;SDS011;40456;53.358;-1.486;2022-07-29T01:59:43;0.90;;;0.40;;
54561;SDS011;40456;53.358;-1.486;2022-07-29T02:02:10;0.63;;;0.30;;
54561;SDS011;40456;53.358;-1.486;2022-07-29T02:04:38;0.50;;;0.40;;
54561;SDS011;40456;53.358;-1.486;2022-07-29T02:07:06;1.45;;;0.40;;
54561;SDS011;40456;53.358;-1.486;2022-07-29T02:09:33;0.60;;;0.15;;
54561;SDS011;40456;53.358;-1.486;2022-07-29T02:12:00;0.57;;;0.30;;
54561;SDS011;40456;53.358;-1.486;2022-07-29T02:14:26;0.60;;;0.40;;
54561;SDS011;40456;53.358;-1.486;2022-07-29T02:16:55;0.43;;;0.30;;
54561;SDS011;40456;53.358;-1.486;2022-07-29T02:19:21;1.13;;;0.47;;
54561;SDS011;40456;53.358;-1.486;2022-07-29T02:21:47;0.30;;;0.20;;
54561;SDS011;40456;53.358;-1.486;2022-07-29T02:24:13;0.40;;;0.40;;
54561;SDS011;40456;53.358;-1.486;2022-07-29T02:26:39;0.30;;;0.30;;
54561;SDS011;40456;53.358;-1.486;2022-07-29T02:29:05;1.02;;;0.30;;
54561;SDS011;40456;53.358;-1.486;2022-07-29T02:31:34;1.92;;;0.43;;
54561;SDS011;40456;53.358;-1.486;2022-07-29T02:34:05;0.30;;;0.22;;
54561;SDS011;40456;53.358;-1.486;2022-07-29T02:36:32;1.08;;;0.30;;
54561;SDS011;40456;53.358;-1.486;2022-07-29T02:38:58;0.45;;;0.43;;
54561;SDS011;40456;53.358;-1.486;2022-07-29T02:41:30;0.30;;;0.20;;
54561;SDS011;40456;53.358;-1.486;2022-07-29T02:44:12;0.45;;;0.38;;
54561;SDS011;40456;53.358;-1.486;2022-07-29T02:46:46;0.65;;;0.32;;
54561;SDS011;40456;53.358;-1.486;2022-07-29T02:49:20;1.17;;;0.20;;
54561;SDS011;40456;53.358;-1.486;2022-07-29T02:52:05;1.70;;;0.32;;
54561;SDS011;40456;53.358;-1.486;2022-07-29T02:57:14;0.60;;;0.40;;
54561;SDS011;40456;53.358;-1.486;2022-07-29T02:59:46;0.25;;;0.22;;
54561;SDS011;40456;53.358;-1.486;2022-07-29T03:02:13;0.95;;;0.50;;
54561;SDS011;40456;53.358;-1.486;2022-07-29T03:04:39;0.52;;;0.30;;
54561;SDS011;40456;53.358;-1.486;2022-07-29T03:07:05;0.45;;;0.30;;
54561;SDS011;40456;53.358;-1.486;2022-07-29T03:09:31;0.47;;;0.32;;
54561;SDS011;40456;53.358;-1.486;2022-07-29T03:11:57;0.20;;;0.20;;
54561;SDS011;40456;53.358;-1.486;2022-07-29T03:14:23;1.02;;;0.60;;
54561;SDS011;40456;53.358;-1.486;2022-07-29T03:16:49;0.35;;;0.30;;
54561;SDS011;40456;53.358;-1.486;2022-07-29T03:19:15;0.28;;;0.20;;
54561;SDS011;40456;53.358;-1.486;2022-07-29T03:21:41;0.77;;;0.40;;
54561;SDS011;40456;53.358;-1.486;2022-07-29T03:24:07;0.73;;;0.40;;
54561;SDS011;40456;53.358;-1.486;2022-07-29T03:26:32;1.15;;;0.47;;
54561;SDS011;40456;53.358;-1.486;2022-07-29T03:28:58;0.85;;;0.35;;
54561;SDS011;40456;53.358;-1.486;2022-07-29T03:31:23;1.27;;;0.55;;
54561;SDS011;40456;53.358;-1.486;2022-07-29T03:33:48;0.50;;;0.50;;
54561;SDS011;40456;53.358;-1.486;2022-07-29T03:36:14;1.05;;;0.20;;
54561;SDS011;40456;53.358;-1.486;2022-07-29T03:38:39;0.82;;;0.32;;
54561;SDS011;40456;53.358;-1.486;2022-07-29T03:41:07;0.50;;;0.30;;
54561;SDS011;40456;53.358;-1.486;2022-07-29T03:43:35;1.35;;;0.47;;
54561;SDS011;40456;53.358;-1.486;2022-07-29T03:46:04;0.40;;;0.40;;
54561;SDS011;40456;53.358;-1.486;2022-07-29T03:48:32;0.73;;;0.50;;
54561;SDS011;40456;53.358;-1.486;2022-07-29T03:51:00;1.70;;;0.60;;
54561;SDS011;40456;53.358;-1.486;2022-07-29T03:53:26;0.30;;;0.30;;
54561;SDS011;40456;53.358;-1.486;2022-07-29T03:55:54;0.82;;;0.40;;
54561;SDS011;40456;53.358;-1.486;2022-07-29T03:58:20;1.33;;;0.57;;
54561;SDS011;40456;53.358;-1.486;2022-07-29T04:00:46;0.50;;;0.40;;
54561;SDS011;40456;53.358;-1.486;2022-07-29T04:03:11;1.65;;;0.70;;
54561;SDS011;40456;53.358;-1.486;2022-07-29T04:05:38;0.88;;;0.40;;
54561;SDS011;40456;53.358;-1.486;2022-07-29T04:08:03;0.73;;;0.30;;
54561;SDS011;40456;53.358;-1.486;2022-07-29T04:10:29;1.65;;;0.40;;
54561;SDS011;40456;53.358;-1.486;2022-07-29T04:12:55;0.80;;;0.45;;
54561;SDS011;40456;53.358;-1.486;2022-07-29T04:15:20;0.65;;;0.40;;
54561;SDS011;40456;53.358;-1.486;2022-07-29T04:17:45;0.80;;;0.40;;
54561;SDS011;40456;53.358;-1.486;2022-07-29T04:20:11;0.45;;;0.40;;
54561;SDS011;40456;53.358;-1.486;2022-07-29T04:22:39;2.40;;;0.28;;
54561;SDS011;40456;53.358;-1.486;2022-07-29T04:25:05;0.73;;;0.35;;
54561;SDS011;40456;53.358;-1.486;2022-07-29T04:27:31;0.45;;;0.30;;
54561;SDS011;40456;53.358;-1.486;2022-07-29T04:29:56;0.73;;;0.50;;
54561;SDS011;40456;53.358;-1.486;2022-07-29T04:32:22;0.47;;;0.22;;
54561;SDS011;40456;53.358;-1.486;2022-07-29T04:34:47;0.77;;;0.50;;
54561;SDS011;40456;53.358;-1.486;2022-07-29T04:37:13;0.22;;;0.22;;
54561;SDS011;40456;53.358;-1.486;2022-07-29T04:39:38;2.15;;;0.55;;
54561;SDS011;40456;53.358;-1.486;2022-07-29T04:42:04;0.45;;;0.25;;
54561;SDS011;40456;53.358;-1.486;2022-07-29T04:44:29;0.40;;;0.40;;
54561;SDS011;40456;53.358;-1.486;2022-07-29T04:46:55;2.15;;;0.30;;
54561;SDS011;40456;53.358;-1.486;2022-07-29T04:49:21;0.50;;;0.40;;
54561;SDS011;40456;53.358;-1.486;2022-07-29T04:51:47;0.63;;;0.38;;
54561;SDS011;40456;53.358;-1.486;2022-07-29T04:54:12;0.28;;;0.28;;
54561;SDS011;40456;53.358;-1.486;2022-07-29T04:56:37;0.45;;;0.30;;
54561;SDS011;40456;53.358;-1.486;2022-07-29T04:59:03;1.13;;;0.20;;
54561;SDS011;40456;53.358;-1.486;2022-07-29T05:01:28;0.35;;;0.35;;
54561;SDS011;40456;53.358;-1.486;2022-07-29T05:03:54;0.80;;;0.40;;
54561;SDS011;40456;53.358;-1.486;2022-07-29T05:06:19;1.05;;;0.30;;
54561;SDS011;40456;53.358;-1.486;2022-07-29T05:08:45;1.25;;;0.40;;
54561;SDS011;40456;53.358;-1.486;2022-07-29T05:11:10;2.50;;;0.45;;
54561;SDS011;40456;53.358;-1.486;2022-07-29T05:13:35;0.43;;;0.32;;
54561;SDS011;40456;53.358;-1.486;2022-07-29T05:16:01;0.38;;;0.38;;
54561;SDS011;40456;53.358;-1.486;2022-07-29T05:18:27;0.32;;;0.30;;
54561;SDS011;40456;53.358;-1.486;2022-07-29T05:20:52;0.90;;;0.40;;
54561;SDS011;40456;53.358;-1.486;2022-07-29T05:23:17;2.05;;;0.40;;
54561;SDS011;40456;53.358;-1.486;2022-07-29T05:25:43;0.40;;;0.25;;
54561;SDS011;40456;53.358;-1.486;2022-07-29T05:28:09;1.15;;;0.40;;
54561;SDS011;40456;53.358;-1.486;2022-07-29T05:30:34;0.77;;;0.40;;
54561;SDS011;40456;53.358;-1.486;2022-07-29T05:33:00;0.55;;;0.30;;
54561;SDS011;40456;53.358;-1.486;2022-07-29T05:35:25;0.40;;;0.40;;
54561;SDS011;40456;53.358;-1.486;2022-07-29T05:37:51;1.08;;;0.30;;
54561;SDS011;40456;53.358;-1.486;2022-07-29T05:40:16;0.95;;;0.60;;
54561;SDS011;40456;53.358;-1.486;2022-07-29T05:42:42;0.82;;;0.40;;
54561;SDS011;40456;53.358;-1.486;2022-07-29T05:45:07;0.52;;;0.40;;
54561;SDS011;40456;53.358;-1.486;2022-07-29T05:47:34;0.55;;;0.30;;
54561;SDS011;40456;53.358;-1.486;2022-07-29T05:49:59;0.30;;;0.30;;
54561;SDS011;40456;53.358;-1.486;2022-07-29T05:52:25;0.82;;;0.35;;
54561;SDS011;40456;53.358;-1.486;2022-07-29T05:54:50;0.30;;;0.30;;
54561;SDS011;40456;53.358;-1.486;2022-07-29T05:57:20;0.80;;;0.50;;
54561;SDS011;40456;53.358;-1.486;2022-07-29T05:59:46;0.40;;;0.40;;
54561;SDS011;40456;53.358;-1.486;2022-07-29T06:02:13;0.70;;;0.52;;
54561;SDS011;40456;53.358;-1.486;2022-07-29T06:04:38;0.40;;;0.20;;
54561;SDS011;40456;53.358;-1.486;2022-07-29T06:07:03;0.55;;;0.40;;
54561;SDS011;40456;53.358;-1.486;2022-07-29T06:09:29;0.50;;;0.40;;
54561;SDS011;40456;53.358;-1.486;2022-07-29T06:11:55;0.40;;;0.38;;
54561;SDS011;40456;53.358;-1.486;2022-07-29T06:14:20;0.60;;;0.47;;
54561;SDS011;40456;53.358;-1.486;2022-07-29T06:16:46;1.58;;;0.40;;
54561;SDS011;40456;53.358;-1.486;2022-07-29T06:19:11;0.30;;;0.30;;
54561;SDS011;40456;53.358;-1.486;2022-07-29T06:21:41;1.63;;;0.40;;
54561;SDS011;40456;53.358;-1.486;2022-07-29T06:24:12;0.82;;;0.40;;
54561;SDS011;40456;53.358;-1.486;2022-07-29T06:26:38;1.20;;;0.25;;
54561;SDS011;40456;53.358;-1.486;2022-07-29T06:29:04;0.50;;;0.40;;
54561;SDS011;40456;53.358;-1.486;2022-07-29T06:31:30;0.55;;;0.40;;
54561;SDS011;40456;53.358;-1.486;2022-07-29T06:33:55;0.50;;;0.40;;
54561;SDS011;40456;53.358;-1.486;2022-07-29T06:36:21;0.85;;;0.43;;
54561;SDS011;40456;53.358;-1.486;2022-07-29T06:38:46;1.05;;;0.60;;
54561;SDS011;40456;53.358;-1.486;2022-07-29T06:41:11;1.50;;;0.45;;
54561;SDS011;40456;53.358;-1.486;2022-07-29T06:43:40;0.50;;;0.40;;
54561;SDS011;40456;53.358;-1.486;2022-07-29T06:46:08;1.63;;;0.30;;
54561;SDS011;40456;53.358;-1.486;2022-07-29T06:48:35;0.70;;;0.30;;
54561;SDS011;40456;53.358;-1.486;2022-07-29T06:51:03;2.45;;;0.50;;
54561;SDS011;40456;53.358;-1.486;2022-07-29T06:53:30;1.00;;;0.55;;
54561;SDS011;40456;53.358;-1.486;2022-07-29T06:55:55;0.32;;;0.32;;
54561;SDS011;40456;53.358;-1.486;2022-07-29T06:58:21;0.40;;;0.40;;
54561;SDS011;40456;53.358;-1.486;2022-07-29T07:00:47;0.60;;;0.30;;
54561;SDS011;40456;53.358;-1.486;2022-07-29T07:03:12;1.33;;;0.50;;
54561;SDS011;40456;53.358;-1.486;2022-07-29T07:05:38;2.67;;;0.50;;
54561;SDS011;40456;53.358;-1.486;2022-07-29T07:08:04;1.92;;;0.75;;
54561;SDS011;40456;53.358;-1.486;2022-07-29T07:10:29;1.05;;;0.38;;
54561;SDS011;40456;53.358;-1.486;2022-07-29T07:12:55;1.17;;;0.38;;
54561;SDS011;40456;53.358;-1.486;2022-07-29T07:15:20;0.50;;;0.40;;
54561;SDS011;40456;53.358;-1.486;2022-07-29T07:17:49;0.77;;;0.45;;
54561;SDS011;40456;53.358;-1.486;2022-07-29T07:20:15;0.80;;;0.30;;
54561;SDS011;40456;53.358;-1.486;2022-07-29T07:22:42;1.15;;;0.50;;
54561;SDS011;40456;53.358;-1.486;2022-07-29T07:25:07;1.08;;;0.50;;
54561;SDS011;40456;53.358;-1.486;2022-07-29T07:27:33;0.63;;;0.40;;
54561;SDS011;40456;53.358;-1.486;2022-07-29T07:29:59;1.08;;;0.45;;
54561;SDS011;40456;53.358;-1.486;2022-07-29T07:32:24;0.63;;;0.55;;
54561;SDS011;40456;53.358;-1.486;2022-07-29T07:34:50;0.63;;;0.32;;
54561;SDS011;40456;53.358;-1.486;2022-07-29T07:37:15;0.90;;;0.50;;
54561;SDS011;40456;53.358;-1.486;2022-07-29T07:39:42;0.40;;;0.40;;
54561;SDS011;40456;53.358;-1.486;2022-07-29T07:42:07;0.65;;;0.50;;
54561;SDS011;40456;53.358;-1.486;2022-07-29T07:44:33;0.43;;;0.30;;
54561;SDS011;40456;53.358;-1.486;2022-07-29T07:46:58;1.17;;;0.50;;
54561;SDS011;40456;53.358;-1.486;2022-07-29T07:49:24;0.40;;;0.35;;
54561;SDS011;40456;53.358;-1.486;2022-07-29T07:51:49;1.02;;;0.40;;
54561;SDS011;40456;53.358;-1.486;2022-07-29T07:54:15;0.60;;;0.40;;
54561;SDS011;40456;53.358;-1.486;2022-07-29T07:56:41;0.30;;;0.30;;
54561;SDS011;40456;53.358;-1.486;2022-07-29T07:59:06;0.30;;;0.30;;
54561;SDS011;40456;53.358;-1.486;2022-07-29T08:01:32;0.95;;;0.47;;
54561;SDS011;40456;53.358;-1.486;2022-07-29T08:03:57;1.75;;;0.40;;
54561;SDS011;40456;53.358;-1.486;2022-07-29T08:06:25;0.93;;;0.50;;
54561;SDS011;40456;53.358;-1.486;2022-07-29T08:08:51;0.73;;;0.40;;
54561;SDS011;40456;53.358;-1.486;2022-07-29T08:11:16;0.40;;;0.40;;
54561;SDS011;40456;53.358;-1.486;2022-07-29T08:13:42;0.70;;;0.30;;
54561;SDS011;40456;53.358;-1.486;2022-07-29T08:16:08;0.60;;;0.50;;
54561;SDS011;40456;53.358;-1.486;2022-07-29T08:18:39;1.38;;;0.70;;
54561;SDS011;40456;53.358;-1.486;2022-07-29T08:21:08;0.40;;;0.40;;
54561;SDS011;40456;53.358;-1.486;2022-07-29T08:23:33;1.55;;;0.65;;
54561;SDS011;40456;53.358;-1.486;2022-07-29T08:26:11;1.30;;;0.40;;
54561;SDS011;40456;53.358;-1.486;2022-07-29T08:28:37;1.38;;;0.80;;
54561;SDS011;40456;53.358;-1.486;2022-07-29T08:31:03;0.88;;;0.45;;
54561;SDS011;40456;53.358;-1.486;2022-07-29T08:33:29;1.25;;;0.55;;
54561;SDS011;40456;53.358;-1.486;2022-07-29T08:35:54;0.43;;;0.35;;
54561;SDS011;40456;53.358;-1.486;2022-07-29T08:38:20;1.33;;;0.50;;
54561;SDS011;40456;53.358;-1.486;2022-07-29T08:40:45;1.63;;;0.65;;
54561;SDS011;40456;53.358;-1.486;2022-07-29T08:43:11;0.30;;;0.30;;
54561;SDS011;40456;53.358;-1.486;2022-07-29T08:45:44;0.77;;;0.50;;
54561;SDS011;40456;53.358;-1.486;2022-07-29T08:48:12;0.40;;;0.32;;
54561;SDS011;40456;53.358;-1.486;2022-07-29T08:50:39;1.10;;;0.52;;
54561;SDS011;40456;53.358;-1.486;2022-07-29T08:53:05;0.77;;;0.50;;
54561;SDS011;40456;53.358;-1.486;2022-07-29T08:55:32;0.52;;;0.40;;
54561;SDS011;40456;53.358;-1.486;2022-07-29T08:57:59;0.95;;;0.50;;
54561;SDS011;40456;53.358;-1.486;2022-07-29T09:00:25;0.80;;;0.45;;
54561;SDS011;40456;53.358;-1.486;2022-07-29T09:02:55;0.60;;;0.40;;
54561;SDS011;40456;53.358;-1.486;2022-07-29T09:05:23;1.27;;;0.47;;
54561;SDS011;40456;53.358;-1.486;2022-07-29T09:07:49;0.93;;;0.40;;
54561;SDS011;40456;53.358;-1.486;2022-07-29T09:10:15;1.60;;;0.38;;
54561;SDS011;40456;53.358;-1.486;2022-07-29T09:12:42;2.17;;;0.38;;
54561;SDS011;40456;53.358;-1.486;2022-07-29T09:15:08;0.40;;;0.30;;
54561;SDS011;40456;53.358;-1.486;2022-07-29T09:20:29;1.65;;;0.73;;
54561;SDS011;40456;53.358;-1.486;2022-07-29T09:23:15;1.33;;;0.40;;
54561;SDS011;40456;53.358;-1.486;2022-07-29T09:25:41;0.95;;;0.40;;
54561;SDS011;40456;53.358;-1.486;2022-07-29T09:28:08;1.05;;;0.40;;
54561;SDS011;40456;53.358;-1.486;2022-07-29T09:30:58;1.48;;;0.50;;
54561;SDS011;40456;53.358;-1.486;2022-07-29T09:33:23;1.08;;;0.40;;
54561;SDS011;40456;53.358;-1.486;2022-07-29T09:36:03;0.85;;;0.40;;
54561;SDS011;40456;53.358;-1.486;2022-07-29T09:38:30;0.77;;;0.32;;
54561;SDS011;40456;53.358;-1.486;2022-07-29T09:40:56;0.30;;;0.30;;
54561;SDS011;40456;53.358;-1.486;2022-07-29T09:43:22;2.75;;;0.52;;
54561;SDS011;40456;53.358;-1.486;2022-07-29T09:45:48;1.85;;;0.50;;
54561;SDS011;40456;53.358;-1.486;2022-07-29T09:48:17;2.13;;;0.50;;
54561;SDS011;40456;53.358;-1.486;2022-07-29T09:50:47;0.85;;;0.30;;
54561;SDS011;40456;53.358;-1.486;2022-07-29T09:56:09;0.35;;;0.28;;
54561;SDS011;40456;53.358;-1.486;2022-07-29T09:58:35;0.98;;;0.40;;
54561;SDS011;40456;53.358;-1.486;2022-07-29T10:01:01;0.60;;;0.60;;
54561;SDS011;40456;53.358;-1.486;2022-07-29T10:03:26;1.45;;;0.40;;
54561;SDS011;40456;53.358;-1.486;2022-07-29T10:08:30;0.93;;;0.50;;
54561;SDS011;40456;53.358;-1.486;2022-07-29T10:11:08;0.63;;;0.47;;
54561;SDS011;40456;53.358;-1.486;2022-07-29T10:13:41;1.33;;;0.55;;
54561;SDS011;40456;53.358;-1.486;2022-07-29T10:16:07;1.05;;;0.60;;
54561;SDS011;40456;53.358;-1.486;2022-07-29T10:18:33;1.95;;;0.63;;
54561;SDS011;40456;53.358;-1.486;2022-07-29T10:21:03;1.33;;;0.75;;
54561;SDS011;40456;53.358;-1.486;2022-07-29T10:23:29;0.47;;;0.40;;
54561;SDS011;40456;53.358;-1.486;2022-07-29T10:25:54;1.00;;;0.60;;
54561;SDS011;40456;53.358;-1.486;2022-07-29T10:28:20;1.95;;;0.60;;
54561;SDS011;40456;53.358;-1.486;2022-07-29T10:30:45;0.77;;;0.50;;
54561;SDS011;40456;53.358;-1.486;2022-07-29T10:33:25;2.92;;;0.65;;
54561;SDS011;40456;53.358;-1.486;2022-07-29T10:44:00;0.75;;;0.60;;
54561;SDS011;40456;53.358;-1.486;2022-07-29T10:46:27;0.40;;;0.40;;
54561;SDS011;40456;53.358;-1.486;2022-07-29T10:59:38;1.65;;;1.10;;
54561;SDS011;40456;53.358;-1.486;2022-07-29T11:07:24;0.60;;;0.50;;
54561;SDS011;40456;53.358;-1.486;2022-07-29T11:15:12;1.02;;;0.52;;
54561;SDS011;40456;53.358;-1.486;2022-07-29T11:28:42;0.70;;;0.38;;
54561;SDS011;40456;53.358;-1.486;2022-07-29T11:31:19;0.52;;;0.30;;
54561;SDS011;40456;53.358;-1.486;2022-07-29T11:39:35;0.55;;;0.30;;
54561;SDS011;40456;53.358;-1.486;2022-07-29T11:47:27;0.85;;;0.50;;
54561;SDS011;40456;53.358;-1.486;2022-07-29T11:49:55;1.98;;;0.70;;
54561;SDS011;40456;53.358;-1.486;2022-07-29T11:52:22;0.93;;;0.50;;
54561;SDS011;40456;53.358;-1.486;2022-07-29T11:54:48;0.77;;;0.60;;
54561;SDS011;40456;53.358;-1.486;2022-07-29T11:57:16;0.88;;;0.40;;
54561;SDS011;40456;53.358;-1.486;2022-07-29T11:59:43;1.77;;;0.55;;
54561;SDS011;40456;53.358;-1.486;2022-07-29T12:02:10;0.40;;;0.40;;
54561;SDS011;40456;53.358;-1.486;2022-07-29T12:04:48;1.00;;;0.50;;
54561;SDS011;40456;53.358;-1.486;2022-07-29T12:07:13;0.43;;;0.40;;
54561;SDS011;40456;53.358;-1.486;2022-07-29T12:09:39;0.63;;;0.40;;
54561;SDS011;40456;53.358;-1.486;2022-07-29T12:12:04;1.55;;;0.50;;
54561;SDS011;40456;53.358;-1.486;2022-07-29T12:14:31;0.93;;;0.50;;
54561;SDS011;40456;53.358;-1.486;2022-07-29T12:16:57;0.73;;;0.60;;
54561;SDS011;40456;53.358;-1.486;2022-07-29T12:19:23;0.65;;;0.50;;
54561;SDS011;40456;53.358;-1.486;2022-07-29T12:21:50;0.55;;;0.38;;
54561;SDS011;40456;53.358;-1.486;2022-07-29T12:24:17;0.93;;;0.40;;
54561;SDS011;40456;53.358;-1.486;2022-07-29T12:26:56;0.98;;;0.55;;
54561;SDS011;40456;53.358;-1.486;2022-07-29T12:29:22;0.30;;;0.30;;
54561;SDS011;40456;53.358;-1.486;2022-07-29T12:31:51;0.50;;;0.50;;
54561;SDS011;40456;53.358;-1.486;2022-07-29T12:34:19;0.28;;;0.20;;
54561;SDS011;40456;53.358;-1.486;2022-07-29T12:36:45;1.00;;;0.40;;
54561;SDS011;40456;53.358;-1.486;2022-07-29T12:39:11;0.57;;;0.57;;
54561;SDS011;40456;53.358;-1.486;2022-07-29T12:41:37;0.45;;;0.45;;
54561;SDS011;40456;53.358;-1.486;2022-07-29T12:44:03;1.02;;;0.47;;
54561;SDS011;40456;53.358;-1.486;2022-07-29T12:46:29;1.17;;;0.70;;
54561;SDS011;40456;53.358;-1.486;2022-07-29T12:48:55;1.17;;;0.52;;
54561;SDS011;40456;53.358;-1.486;2022-07-29T12:51:28;1.40;;;0.80;;
54561;SDS011;40456;53.358;-1.486;2022-07-29T12:56:33;2.35;;;0.52;;
54561;SDS011;40456;53.358;-1.486;2022-07-29T12:58:59;3.17;;;1.05;;
54561;SDS011;40456;53.358;-1.486;2022-07-29T13:01:24;0.40;;;0.40;;
54561;SDS011;40456;53.358;-1.486;2022-07-29T13:03:53;0.88;;;0.40;;
54561;SDS011;40456;53.358;-1.486;2022-07-29T13:06:39;0.68;;;0.50;;
54561;SDS011;40456;53.358;-1.486;2022-07-29T13:09:13;0.63;;;0.50;;
54561;SDS011;40456;53.358;-1.486;2022-07-29T13:11:41;0.47;;;0.47;;
54561;SDS011;40456;53.358;-1.486;2022-07-29T13:14:09;0.93;;;0.50;;
54561;SDS011;40456;53.358;-1.486;2022-07-29T13:16:36;0.50;;;0.43;;
54561;SDS011;40456;53.358;-1.486;2022-07-29T13:19:03;0.50;;;0.45;;
54561;SDS011;40456;53.358;-1.486;2022-07-29T13:21:31;0.60;;;0.50;;
54561;SDS011;40456;53.358;-1.486;2022-07-29T13:23:57;0.38;;;0.38;;
54561;SDS011;40456;53.358;-1.486;2022-07-29T13:26:22;0.52;;;0.35;;
54561;SDS011;40456;53.358;-1.486;2022-07-29T13:28:47;1.60;;;0.60;;
54561;SDS011;40456;53.358;-1.486;2022-07-29T13:31:13;1.38;;;0.50;;
54561;SDS011;40456;53.358;-1.486;2022-07-29T13:33:38;1.30;;;0.57;;
54561;SDS011;40456;53.358;-1.486;2022-07-29T13:36:04;0.73;;;0.55;;
54561;SDS011;40456;53.358;-1.486;2022-07-29T13:38:29;1.05;;;0.47;;
54561;SDS011;40456;53.358;-1.486;2022-07-29T13:40:55;0.75;;;0.43;;
54561;SDS011;40456;53.358;-1.486;2022-07-29T13:43:20;0.73;;;0.30;;
54561;SDS011;40456;53.358;-1.486;2022-07-29T13:45:46;0.80;;;0.55;;
54561;SDS011;40456;53.358;-1.486;2022-07-29T13:48:11;0.73;;;0.43;;
54561;SDS011;40456;53.358;-1.486;2022-07-29T13:50:36;1.38;;;0.40;;
54561;SDS011;40456;53.358;-1.486;2022-07-29T13:53:02;0.40;;;0.40;;
54561;SDS011;40456;53.358;-1.486;2022-07-29T13:55:29;0.35;;;0.35;;
54561;SDS011;40456;53.358;-1.486;2022-07-29T13:57:54;1.02;;;0.47;;
54561;SDS011;40456;53.358;-1.486;2022-07-29T14:00:19;1.00;;;0.50;;
54561;SDS011;40456;53.358;-1.486;2022-07-29T14:02:45;1.40;;;0.57;;
54561;SDS011;40456;53.358;-1.486;2022-07-29T14:05:11;0.77;;;0.57;;
54561;SDS011;40456;53.358;-1.486;2022-07-29T14:07:37;0.60;;;0.60;;
54561;SDS011;40456;53.358;-1.486;2022-07-29T14:10:03;0.30;;;0.30;;
54561;SDS011;40456;53.358;-1.486;2022-07-29T14:12:29;0.80;;;0.38;;
54561;SDS011;40456;53.358;-1.486;2022-07-29T14:14:55;1.85;;;0.50;;
54561;SDS011;40456;53.358;-1.486;2022-07-29T14:17:20;0.90;;;0.30;;
54561;SDS011;40456;53.358;-1.486;2022-07-29T14:19:46;0.40;;;0.40;;
54561;SDS011;40456;53.358;-1.486;2022-07-29T14:22:11;0.65;;;0.45;;
54561;SDS011;40456;53.358;-1.486;2022-07-29T14:24:36;0.43;;;0.32;;
54561;SDS011;40456;53.358;-1.486;2022-07-29T14:27:02;0.40;;;0.30;;
54561;SDS011;40456;53.358;-1.486;2022-07-29T14:29:28;0.65;;;0.47;;
54561;SDS011;40456;53.358;-1.486;2022-07-29T14:31:54;2.53;;;0.65;;
54561;SDS011;40456;53.358;-1.486;2022-07-29T14:34:19;0.90;;;0.50;;
54561;SDS011;40456;53.358;-1.486;2022-07-29T14:36:44;0.73;;;0.65;;
54561;SDS011;40456;53.358;-1.486;2022-07-29T14:39:10;1.08;;;0.50;;
54561;SDS011;40456;53.358;-1.486;2022-07-29T14:41:36;0.50;;;0.50;;
54561;SDS011;40456;53.358;-1.486;2022-07-29T14:44:01;1.70;;;0.60;;
54561;SDS011;40456;53.358;-1.486;2022-07-29T14:46:27;1.20;;;0.52;;
54561;SDS011;40456;53.358;-1.486;2022-07-29T14:48:53;0.40;;;0.40;;
54561;SDS011;40456;53.358;-1.486;2022-07-29T14:51:18;0.55;;;0.35;;
54561;SDS011;40456;53.358;-1.486;2022-07-29T14:53:44;0.85;;;0.47;;
54561;SDS011;40456;53.358;-1.486;2022-07-29T14:56:09;0.43;;;0.40;;
54561;SDS011;40456;53.358;-1.486;2022-07-29T14:58:35;0.50;;;0.45;;
54561;SDS011;40456;53.358;-1.486;2022-07-29T15:01:00;1.80;;;0.93;;
54561;SDS011;40456;53.358;-1.486;2022-07-29T15:03:26;0.93;;;0.77;;
54561;SDS011;40456;53.358;-1.486;2022-07-29T15:05:53;0.50;;;0.32;;
54561;SDS011;40456;53.358;-1.486;2022-07-29T15:08:18;0.55;;;0.55;;
54561;SDS011;40456;53.358;-1.486;2022-07-29T15:10:44;1.08;;;0.55;;
54561;SDS011;40456;53.358;-1.486;2022-07-29T15:13:09;0.82;;;0.45;;
54561;SDS011;40456;53.358;-1.486;2022-07-29T15:15:35;1.13;;;0.40;;
54561;SDS011;40456;53.358;-1.486;2022-07-29T15:18:01;0.60;;;0.52;;
54561;SDS011;40456;53.358;-1.486;2022-07-29T15:20:30;2.30;;;0.52;;
54561;SDS011;40456;53.358;-1.486;2022-07-29T15:22:56;0.82;;;0.50;;
54561;SDS011;40456;53.358;-1.486;2022-07-29T15:25:22;0.60;;;0.60;;
54561;SDS011;40456;53.358;-1.486;2022-07-29T15:27:49;0.60;;;0.50;;
54561;SDS011;40456;53.358;-1.486;2022-07-29T15:30:15;0.45;;;0.45;;
54561;SDS011;40456;53.358;-1.486;2022-07-29T15:32:45;1.38;;;0.52;;
54561;SDS011;40456;53.358;-1.486;2022-07-29T15:35:11;0.45;;;0.45;;
54561;SDS011;40456;53.358;-1.486;2022-07-29T15:37:37;0.68;;;0.43;;
54561;SDS011;40456;53.358;-1.486;2022-07-29T15:40:04;0.85;;;0.60;;
54561;SDS011;40456;53.358;-1.486;2022-07-29T15:42:30;1.33;;;0.60;;
54561;SDS011;40456;53.358;-1.486;2022-07-29T15:44:56;1.05;;;0.63;;
54561;SDS011;40456;53.358;-1.486;2022-07-29T15:47:21;0.80;;;0.40;;
54561;SDS011;40456;53.358;-1.486;2022-07-29T15:49:47;0.60;;;0.50;;
54561;SDS011;40456;53.358;-1.486;2022-07-29T15:52:13;0.65;;;0.50;;